Portada
METAR-TAF:

METAR-TAF

Aeroports :

Navoiy, Uzbekistan

latitud: 40-07-04N, longitud: 065-10-30E, altitud: 348 m

Observació

L'informe es va fer fa 18 minuts, a les 16:30 UTC
Vent calma
Temperatura -1°C
Humitat 86%
Pressió 1026 hPa
Visibilitat 10 km o més

METAR: UTSA 251630Z 00000KT 9999 NSC M01/M03 Q1026 R07/CLRD70 NOSIG

Hora: 21:48 (16:48 UTC)

Pronòstic

L'informe es va fer fa 5 hores i 47 minuts, a les 11:01 UTC
Pronòstic vàlid del 25 a les 12 UTC al 26 a les 12 UTC
Vent 3 kt amb direcció variable
Visibilitat: 7000 m
Temporalment
l' 25 a les 12 UTC al 25 a les 20 UTC
Vent 12 kt del Nord/Nord-Est
Visibilitat: 3000 m
Escasses núvols a una alçada de 3300 ft
boirina, fum
Temporalment
l' 25 a les 20 UTC al 26 a les 05 UTC
Vent 10 kt del Est/Nord-Est
Visibilitat: 0500 m
a una alçada de 200 ft
boira gebradora

TAF: UTSA 251101Z 2512/2612 VRB03KT 7000 NSC TEMPO 2512/2520 02012KT 3000 BR FU FEW033 TEMPO 2520/2605 07010KT 0500 FZFG VV002

Observacions i pronòstics meteorològics de més de 4000 aeroports (METAR i TAF).

Les estacions disponibles són els punts grocs i vermells al mapa.

Posi el ratolí al punt desitjat per veure el nom de l'estació.

Feu clic per veure les observacions i els pronòstics meteorològics.

Per canviar el mapa: feu clic els botons verds amb una creu de color negre per apropar; al botó verd amb un guió per allunyar la imatge; o en les fletxes verdes per a mapes adjacents.


METAR-TAF: